PRIVATE WETTERSTATION BILLIGHEIM-ALLFELD                       ZURCK
Wetterdaten: Dienstag, 15.03.2022
Datum Zeit Temp. A. Temp. A. min Temp. A. max Feuchte A. Luftdruck Regen Wind Richtung Richtung Sonnenschein ET Solar Taupunkt Windchill Windben Empfang
15.03.2022 00:00 2,4 C 2,4 C 2,4 C 90 % 1029,0 hPa 0,0 l/m 0,0 km/h (0 Bft) N 0 0 min 0,000 mm 0 W/m 0,9 C 2,4 C 0,0 km/h (0 Bft) 91 %
15.03.2022 00:10 2,3 C 2,3 C 2,4 C 89 % 1028,9 hPa 0,0 l/m 0,0 km/h (0 Bft) N 0 0 min 0,000 mm 0 W/m 0,7 C 2,3 C 0,0 km/h (0 Bft) 100 %
15.03.2022 00:20 2,2 C 2,2 C 2,3 C 90 % 1028,9 hPa 0,0 l/m 0,0 km/h (0 Bft) N 0 0 min 0,000 mm 0 W/m 0,7 C 2,2 C 0,0 km/h (0 Bft) 100 %
15.03.2022 00:30 2,2 C 2,2 C 2,2 C 89 % 1028,7 hPa 0,0 l/m 0,0 km/h (0 Bft) N 0 0 min 0,000 mm 0 W/m 0,6 C 2,2 C 0,0 km/h (0 Bft) 100 %
15.03.2022 00:40 2,1 C 2,1 C 2,2 C 90 % 1028,6 hPa 0,0 l/m 0,0 km/h (0 Bft) N 0 0 min 0,000 mm 0 W/m 0,6 C 2,1 C 0,0 km/h (0 Bft) 100 %
15.03.2022 00:50 2,0 C 2,0 C 2,1 C 90 % 1028,4 hPa 0,0 l/m 0,0 km/h (0 Bft) N 0 0 min 0,000 mm 0 W/m 0,5 C 2,0 C 0,0 km/h (0 Bft) 100 %
15.03.2022 01:00 1,9 C 1,9 C 2,0 C 90 % 1028,5 hPa 0,0 l/m 0,0 km/h (0 Bft) N 0 0 min 0,000 mm 0 W/m 0,4 C 1,9 C 0,0 km/h (0 Bft) 100 %
15.03.2022 01:10 1,9 C 1,9 C 1,9 C 90 % 1028,3 hPa 0,0 l/m 0,0 km/h (0 Bft) N 0 0 min 0,000 mm 0 W/m 0,4 C 1,9 C 0,0 km/h (0 Bft) 100 %
15.03.2022 01:20 1,9 C 1,9 C 1,9 C 91 % 1028,4 hPa 0,0 l/m 0,0 km/h (0 Bft) N 0 0 min 0,000 mm 0 W/m 0,6 C 1,9 C 0,0 km/h (0 Bft) 100 %
15.03.2022 01:30 2,1 C 1,9 C 2,1 C 90 % 1028,3 hPa 0,0 l/m 0,0 km/h (0 Bft) N 0 0 min 0,000 mm 0 W/m 0,6 C 2,1 C 0,0 km/h (0 Bft) 100 %
15.03.2022 01:40 2,2 C 2,1 C 2,2 C 91 % 1028,5 hPa 0,0 l/m 0,0 km/h (0 Bft) N 0 0 min 0,000 mm 0 W/m 0,9 C 2,2 C 0,0 km/h (0 Bft) 91 %
15.03.2022 01:50 2,3 C 2,2 C 2,3 C 91 % 1028,3 hPa 0,0 l/m 0,0 km/h (0 Bft) N 0 0 min 0,000 mm 0 W/m 1,0 C 2,3 C 0,0 km/h (0 Bft) 100 %
15.03.2022 02:00 2,3 C 2,3 C 2,3 C 90 % 1028,1 hPa 0,0 l/m 0,0 km/h (0 Bft) N 0 0 min 0,000 mm 0 W/m 0,8 C 2,3 C 0,0 km/h (0 Bft) 100 %
15.03.2022 02:10 2,2 C 2,2 C 2,3 C 90 % 1028,0 hPa 0,0 l/m 0,0 km/h (0 Bft) N 0 0 min 0,000 mm 0 W/m 0,7 C 2,2 C 0,0 km/h (0 Bft) 100 %
15.03.2022 02:20 2,1 C 2,1 C 2,2 C 90 % 1028,1 hPa 0,0 l/m 0,0 km/h (0 Bft) N 0 0 min 0,000 mm 0 W/m 0,6 C 2,1 C 0,0 km/h (0 Bft) 100 %
15.03.2022 02:30 2,0 C 2,0 C 2,1 C 90 % 1028,0 hPa 0,0 l/m 0,0 km/h (0 Bft) N 0 0 min 0,000 mm 0 W/m 0,5 C 2,0 C 0,0 km/h (0 Bft) 100 %
15.03.2022 02:40 1,9 C 1,9 C 2,0 C 90 % 1027,8 hPa 0,0 l/m 0,0 km/h (0 Bft) N 0 0 min 0,000 mm 0 W/m 0,4 C 1,9 C 0,0 km/h (0 Bft) 100 %
15.03.2022 02:50 1,9 C 1,9 C 1,9 C 91 % 1027,7 hPa 0,0 l/m 0,0 km/h (0 Bft) N 0 0 min 0,000 mm 0 W/m 0,6 C 1,9 C 0,0 km/h (0 Bft) 100 %
15.03.2022 03:00 1,9 C 1,9 C 1,9 C 91 % 1027,8 hPa 0,0 l/m 0,0 km/h (0 Bft) N 0 0 min 0,000 mm 0 W/m 0,6 C 1,9 C 0,0 km/h (0 Bft) 99 %
15.03.2022 03:10 1,9 C 1,9 C 1,9 C 91 % 1027,7 hPa 0,0 l/m 0,0 km/h (0 Bft) N 0 0 min 0,000 mm 0 W/m 0,6 C 1,9 C 0,0 km/h (0 Bft) 100 %
15.03.2022 03:20 1,9 C 1,9 C 1,9 C 91 % 1027,7 hPa 0,0 l/m 0,0 km/h (0 Bft) N 0 0 min 0,000 mm 0 W/m 0,6 C 1,9 C 0,0 km/h (0 Bft) 90 %
15.03.2022 03:30 2,0 C 1,9 C 2,0 C 91 % 1027,5 hPa 0,0 l/m 0,0 km/h (0 Bft) N 0 0 min 0,000 mm 0 W/m 0,7 C 2,0 C 0,0 km/h (0 Bft) 100 %
15.03.2022 03:40 2,1 C 1,9 C 2,1 C 91 % 1027,5 hPa 0,0 l/m 0,0 km/h (0 Bft) N 0 0 min 0,000 mm 0 W/m 0,8 C 2,1 C 0,0 km/h (0 Bft) 100 %
15.03.2022 03:50 2,1 C 2,1 C 2,1 C 91 % 1027,4 hPa 0,0 l/m 0,0 km/h (0 Bft) N 0 0 min 0,000 mm 0 W/m 0,8 C 2,1 C 0,0 km/h (0 Bft) 100 %
15.03.2022 04:00 2,1 C 2,1 C 2,1 C 91 % 1027,3 hPa 0,0 l/m 0,0 km/h (0 Bft) N 0 0 min 0,000 mm 0 W/m 0,8 C 2,1 C 0,0 km/h (0 Bft) 100 %
15.03.2022 04:10 2,1 C 2,1 C 2,1 C 91 % 1027,4 hPa 0,0 l/m 0,0 km/h (0 Bft) N 0 0 min 0,000 mm 0 W/m 0,8 C 2,1 C 0,0 km/h (0 Bft) 100 %
15.03.2022 04:20 2,2 C 2,1 C 2,2 C 91 % 1027,2 hPa 0,0 l/m 0,0 km/h (0 Bft) N 0 0 min 0,000 mm 0 W/m 0,9 C 2,2 C 0,0 km/h (0 Bft) 100 %
15.03.2022 04:30 2,3 C 2,2 C 2,3 C 91 % 1027,3 hPa 0,0 l/m 0,0 km/h (0 Bft) N 0 0 min 0,000 mm 0 W/m 1,0 C 2,3 C 0,0 km/h (0 Bft) 100 %
15.03.2022 04:40 2,4 C 2,2 C 2,4 C 91 % 1027,2 hPa 0,0 l/m 0,0 km/h (0 Bft) N 0 0 min 0,000 mm 0 W/m 1,1 C 2,4 C 0,0 km/h (0 Bft) 100 %
15.03.2022 04:50 2,4 C 2,4 C 2,4 C 91 % 1026,9 hPa 0,0 l/m 0,0 km/h (0 Bft) N 0 0 min 0,000 mm 0 W/m 1,1 C 2,4 C 0,0 km/h (0 Bft) 100 %
15.03.2022 05:00 2,6 C 2,4 C 2,6 C 91 % 1026,9 hPa 0,0 l/m 0,0 km/h (0 Bft) N 0 0 min 0,000 mm 0 W/m 1,3 C 2,6 C 0,0 km/h (0 Bft) 100 %
15.03.2022 05:10 2,6 C 2,6 C 2,6 C 90 % 1026,9 hPa 0,0 l/m 0,0 km/h (0 Bft) N 0 0 min 0,000 mm 0 W/m 1,1 C 2,6 C 0,0 km/h (0 Bft) 100 %
15.03.2022 05:20 2,6 C 2,6 C 2,6 C 90 % 1026,9 hPa 0,0 l/m 0,0 km/h (0 Bft) N 0 0 min 0,000 mm 0 W/m 1,1 C 2,6 C 0,0 km/h (0 Bft) 100 %
15.03.2022 05:30 2,7 C 2,6 C 2,7 C 90 % 1027,0 hPa 0,0 l/m 0,0 km/h (0 Bft) N 0 0 min 0,000 mm 0 W/m 1,2 C 2,7 C 0,0 km/h (0 Bft) 100 %
15.03.2022 05:40 2,8 C 2,7 C 2,8 C 90 % 1027,0 hPa 0,0 l/m 0,0 km/h (0 Bft) N 0 0 min 0,000 mm 0 W/m 1,3 C 2,8 C 0,0 km/h (0 Bft) 100 %
15.03.2022 05:50 2,9 C 2,8 C 2,9 C 90 % 1026,9 hPa 0,0 l/m 0,0 km/h (0 Bft) N 0 0 min 0,000 mm 0 W/m 1,4 C 2,9 C 0,0 km/h (0 Bft) 100 %
15.03.2022 06:00 3,0 C 2,9 C 3,0 C 90 % 1026,8 hPa 0,0 l/m 0,0 km/h (0 Bft) N 0 0 min 0,000 mm 0 W/m 1,5 C 3,0 C 0,0 km/h (0 Bft) 100 %
15.03.2022 06:10 2,9 C 2,9 C 3,0 C 90 % 1026,8 hPa 0,0 l/m 0,0 km/h (0 Bft) N 0 0 min 0,000 mm 0 W/m 1,4 C 2,9 C 0,0 km/h (0 Bft) 100 %
15.03.2022 06:20 2,8 C 2,8 C 2,9 C 90 % 1026,8 hPa 0,0 l/m 0,0 km/h (0 Bft) N 0 0 min 0,000 mm 0 W/m 1,3 C 2,8 C 0,0 km/h (0 Bft) 100 %
15.03.2022 06:30 2,8 C 2,8 C 2,8 C 90 % 1026,7 hPa 0,0 l/m 0,0 km/h (0 Bft) N 0 0 min 0,000 mm 0 W/m 1,3 C 2,8 C 0,0 km/h (0 Bft) 100 %
15.03.2022 06:40 2,8 C 2,8 C 2,8 C 90 % 1026,6 hPa 0,0 l/m 0,0 km/h (0 Bft) N 0 0 min 0,000 mm 0 W/m 1,3 C 2,8 C 0,0 km/h (0 Bft) 100 %
15.03.2022 06:50 2,8 C 2,8 C 2,8 C 90 % 1026,8 hPa 0,0 l/m 0,0 km/h (0 Bft) N 0 0 min 0,000 mm 5 W/m 1,3 C 2,8 C 0,0 km/h (0 Bft) 100 %
15.03.2022 07:00 3,0 C 2,8 C 3,0 C 90 % 1026,8 hPa 0,0 l/m 0,0 km/h (0 Bft) N 0 0 min 0,000 mm 9 W/m 1,5 C 3,0 C 0,0 km/h (0 Bft) 100 %
15.03.2022 07:10 3,2 C 3,0 C 3,2 C 90 % 1026,7 hPa 0,0 l/m 0,0 km/h (0 Bft) N 0 0 min 0,000 mm 14 W/m 1,7 C 3,2 C 0,0 km/h (0 Bft) 100 %
15.03.2022 07:20 3,2 C 3,2 C 3,2 C 90 % 1026,6 hPa 0,0 l/m 0,0 km/h (0 Bft) N 0 0 min 0,000 mm 25 W/m 1,7 C 3,2 C 0,0 km/h (0 Bft) 99 %
15.03.2022 07:30 3,6 C 3,2 C 3,6 C 89 % 1026,5 hPa 0,0 l/m 0,0 km/h (0 Bft) N 0 0 min 0,000 mm 33 W/m 2,0 C 3,6 C 0,0 km/h (0 Bft) 98 %
15.03.2022 07:40 3,8 C 3,6 C 3,8 C 89 % 1026,4 hPa 0,0 l/m 0,0 km/h (0 Bft) N 0 0 min 0,000 mm 35 W/m 2,2 C 3,8 C 0,0 km/h (0 Bft) 97 %
15.03.2022 07:50 4,0 C 3,8 C 4,0 C 89 % 1026,3 hPa 0,0 l/m 0,0 km/h (0 Bft) N 0 0 min 0,000 mm 49 W/m 2,4 C 4,0 C 0,0 km/h (0 Bft) 98 %
15.03.2022 08:00 4,2 C 4,0 C 4,3 C 89 % 1026,6 hPa 0,0 l/m 0,0 km/h (0 Bft) N 0 0 min 0,025 mm 56 W/m 2,6 C 4,2 C 0,0 km/h (0 Bft) 97 %
15.03.2022 08:10 4,4 C 4,3 C 4,4 C 88 % 1026,6 hPa 0,0 l/m 0,0 km/h (0 Bft) N 0 0 min 0,000 mm 62 W/m 2,6 C 4,4 C 0,0 km/h (0 Bft) 98 %
15.03.2022 08:20 4,6 C 4,4 C 4,6 C 88 % 1026,5 hPa 0,0 l/m 0,0 km/h (0 Bft) N 0 0 min 0,000 mm 86 W/m 2,8 C 4,6 C 0,0 km/h (0 Bft) 97 %
15.03.2022 08:30 4,8 C 4,6 C 4,8 C 88 % 1026,5 hPa 0,0 l/m 0,0 km/h (0 Bft) N 0 0 min 0,000 mm 98 W/m 3,0 C 4,8 C 0,0 km/h (0 Bft) 98 %
15.03.2022 08:40 5,0 C 4,8 C 5,0 C 87 % 1026,5 hPa 0,0 l/m 0,0 km/h (0 Bft) N 0 0 min 0,000 mm 100 W/m 3,0 C 5,0 C 0,0 km/h (0 Bft) 98 %
15.03.2022 08:50 5,2 C 5,0 C 5,2 C 86 % 1026,2 hPa 0,0 l/m 0,0 km/h (0 Bft) N 0 0 min 0,000 mm 127 W/m 3,1 C 5,2 C 0,0 km/h (0 Bft) 97 %
15.03.2022 09:00 5,4 C 5,2 C 5,4 C 85 % 1026,1 hPa 0,0 l/m 0,0 km/h (0 Bft) N 0 0 min 0,051 mm 130 W/m 3,1 C 5,4 C 0,0 km/h (0 Bft) 98 %
15.03.2022 09:10 5,5 C 5,4 C 5,5 C 85 % 1026,1 hPa 0,0 l/m 0,0 km/h (0 Bft) N 0 0 min 0,000 mm 120 W/m 3,2 C 5,5 C 0,0 km/h (0 Bft) 97 %
15.03.2022 09:20 5,6 C 5,5 C 5,6 C 84 % 1026,4 hPa 0,0 l/m 0,0 km/h (0 Bft) N 0 0 min 0,000 mm 95 W/m 3,1 C 5,6 C 0,0 km/h (0 Bft) 98 %
15.03.2022 09:30 5,7 C 5,6 C 5,7 C 84 % 1026,3 hPa 0,0 l/m 0,0 km/h (0 Bft) N 0 0 min 0,000 mm 86 W/m 3,2 C 5,7 C 0,0 km/h (0 Bft) 97 %
15.03.2022 09:40 5,6 C 5,6 C 5,7 C 84 % 1026,2 hPa 0,0 l/m 0,0 km/h (0 Bft) N 0 0 min 0,000 mm 93 W/m 3,1 C 5,6 C 0,0 km/h (0 Bft) 98 %
15.03.2022 09:50 5,6 C 5,6 C 5,7 C 84 % 1026,1 hPa 0,0 l/m 0,0 km/h (0 Bft) N 0 0 min 0,000 mm 113 W/m 3,1 C 5,6 C 0,0 km/h (0 Bft) 98 %
15.03.2022 10:00 5,8 C 5,6 C 5,8 C 85 % 1025,9 hPa 0,0 l/m 0,0 km/h (0 Bft) N 0 10 min 0,051 mm 176 W/m 3,5 C 5,8 C 0,0 km/h (0 Bft) 98 %
15.03.2022 10:10 6,1 C 5,8 C 6,1 C 84 % 1026,1 hPa 0,0 l/m 0,0 km/h (0 Bft) N 0 10 min 0,000 mm 216 W/m 3,6 C 6,1 C 0,0 km/h (0 Bft) 98 %
15.03.2022 10:20 6,3 C 6,1 C 6,3 C 83 % 1025,9 hPa 0,0 l/m 0,0 km/h (0 Bft) N 0 10 min 0,000 mm 202 W/m 3,6 C 6,3 C 0,0 km/h (0 Bft) 97 %
15.03.2022 10:30 6,4 C 6,3 C 6,4 C 81 % 1025,9 hPa 0,0 l/m 0,0 km/h (0 Bft) N 0 10 min 0,000 mm 207 W/m 3,4 C 6,4 C 0,0 km/h (0 Bft) 98 %
15.03.2022 10:40 6,8 C 6,5 C 6,8 C 81 % 1025,6 hPa 0,0 l/m 0,0 km/h (0 Bft) N 0 10 min 0,000 mm 244 W/m 3,8 C 6,8 C 0,0 km/h (0 Bft) 97 %
15.03.2022 10:50 7,0 C 6,8 C 7,0 C 80 % 1025,3 hPa 0,0 l/m 0,0 km/h (0 Bft) N 0 10 min 0,000 mm 232 W/m 3,8 C 7,0 C 0,0 km/h (0 Bft) 98 %
15.03.2022 11:00 7,3 C 7,0 C 7,3 C 80 % 1024,9 hPa 0,0 l/m 0,0 km/h (0 Bft) N 0 10 min 0,076 mm 223 W/m 4,1 C 7,3 C 0,0 km/h (0 Bft) 83 %
15.03.2022 11:10 7,8 C 7,3 C 7,8 C 79 % 1024,8 hPa 0,0 l/m 0,0 km/h (0 Bft) N 0 10 min 0,000 mm 218 W/m 4,4 C 7,8 C 0,0 km/h (0 Bft) 98 %
15.03.2022 11:20 7,9 C 7,8 C 7,9 C 78 % 1024,8 hPa 0,0 l/m 0,0 km/h (0 Bft) N 0 10 min 0,000 mm 204 W/m 4,3 C 7,9 C 0,0 km/h (0 Bft) 98 %
15.03.2022 11:30 7,9 C 7,9 C 8,0 C 77 % 1024,7 hPa 0,0 l/m 0,0 km/h (0 Bft) SW 225 10 min 0,000 mm 167 W/m 4,1 C 7,9 C 1,6 km/h (1 Bft) 97 %
15.03.2022 11:40 7,8 C 7,8 C 7,9 C 76 % 1024,3 hPa 0,0 l/m 0,0 km/h (0 Bft) N 0 10 min 0,000 mm 167 W/m 3,8 C 7,8 C 0,0 km/h (0 Bft) 97 %
15.03.2022 11:50 7,7 C 7,7 C 7,8 C 75 % 1024,3 hPa 0,0 l/m 0,0 km/h (0 Bft) N 0 10 min 0,000 mm 169 W/m 3,6 C 7,7 C 0,0 km/h (0 Bft) 98 %
15.03.2022 12:00 7,8 C 7,7 C 7,8 C 76 % 1024,3 hPa 0,0 l/m 0,0 km/h (0 Bft) S-SO 158 0 min 0,076 mm 104 W/m 3,8 C 7,8 C 0,0 km/h (0 Bft) 100 %
15.03.2022 12:10 7,8 C 7,8 C 7,8 C 78 % 1024,3 hPa 0,0 l/m 0,0 km/h (0 Bft) S-SO 158 0 min 0,000 mm 104 W/m 4,2 C 7,8 C 0,0 km/h (0 Bft) 100 %
15.03.2022 12:20 7,8 C 7,8 C 7,9 C 78 % 1024,1 hPa 0,0 l/m 0,0 km/h (0 Bft) S-SO 158 0 min 0,000 mm 97 W/m 4,2 C 7,8 C 0,0 km/h (0 Bft) 100 %
15.03.2022 12:30 7,8 C 7,8 C 7,8 C 77 % 1023,7 hPa 0,0 l/m 0,0 km/h (0 Bft) S-SO 158 0 min 0,000 mm 83 W/m 4,0 C 7,8 C 0,0 km/h (0 Bft) 100 %
15.03.2022 12:40 7,7 C 7,7 C 7,8 C 78 % 1023,2 hPa 0,0 l/m 0,0 km/h (0 Bft) S-SO 158 0 min 0,000 mm 93 W/m 4,1 C 7,7 C 0,0 km/h (0 Bft) 100 %
15.03.2022 12:50 7,7 C 7,7 C 7,7 C 79 % 1023,0 hPa 0,0 l/m 0,0 km/h (0 Bft) S-SO 166 0 min 0,000 mm 105 W/m 4,3 C 7,7 C 0,0 km/h (0 Bft) 99 %
15.03.2022 13:00 7,8 C 7,7 C 7,8 C 80 % 1022,8 hPa 0,0 l/m 0,6 km/h (0 Bft) SO 130 0 min 0,000 mm 77 W/m 4,6 C 7,8 C 4,8 km/h (1 Bft) 99 %
15.03.2022 13:10 7,8 C 7,8 C 7,8 C 79 % 1022,7 hPa 0,0 l/m 0,0 km/h (0 Bft) SO 130 0 min 0,051 mm 81 W/m 4,4 C 7,8 C 0,0 km/h (0 Bft) 99 %
15.03.2022 13:20 7,8 C 7,8 C 7,8 C 80 % 1022,6 hPa 0,2 l/m 0,8 km/h (0 Bft) SO 142 0 min 0,000 mm 58 W/m 4,6 C 7,8 C 4,8 km/h (1 Bft) 99 %
15.03.2022 13:30 7,7 C 7,7 C 7,8 C 82 % 1022,2 hPa 0,0 l/m 0,0 km/h (0 Bft) SO 142 0 min 0,000 mm 72 W/m 4,8 C 7,7 C 0,0 km/h (0 Bft) 100 %
15.03.2022 13:40 7,6 C 7,6 C 7,7 C 82 % 1022,0 hPa 0,0 l/m 0,0 km/h (0 Bft) SO 142 0 min 0,000 mm 54 W/m 4,7 C 7,6 C 0,0 km/h (0 Bft) 100 %
15.03.2022 13:50 7,5 C 7,5 C 7,6 C 83 % 1021,9 hPa 0,0 l/m 0,0 km/h (0 Bft) SO 142 0 min 0,000 mm 132 W/m 4,8 C 7,5 C 0,0 km/h (0 Bft) 99 %
15.03.2022 14:00 7,4 C 7,4 C 7,5 C 85 % 1021,9 hPa 0,0 l/m 0,0 km/h (0 Bft) SO 142 0 min 0,026 mm 79 W/m 5,0 C 7,4 C 1,6 km/h (1 Bft) 99 %
15.03.2022 14:10 7,5 C 7,4 C 7,5 C 85 % 1021,6 hPa 0,0 l/m 0,0 km/h (0 Bft) SO 140 10 min 0,000 mm 167 W/m 5,1 C 7,5 C 0,0 km/h (0 Bft) 98 %
15.03.2022 14:20 7,7 C 7,5 C 7,7 C 86 % 1021,4 hPa 0,0 l/m 0,0 km/h (0 Bft) SO 140 0 min 0,000 mm 139 W/m 5,5 C 7,7 C 0,0 km/h (0 Bft) 97 %
15.03.2022 14:30 7,8 C 7,7 C 7,8 C 85 % 1021,1 hPa 0,0 l/m 0,0 km/h (0 Bft) SO 140 0 min 0,000 mm 128 W/m 5,4 C 7,8 C 0,0 km/h (0 Bft) 98 %
15.03.2022 14:40 8,1 C 7,8 C 8,1 C 85 % 1020,9 hPa 0,0 l/m 0,0 km/h (0 Bft) SO 140 0 min 0,000 mm 104 W/m 5,7 C 8,1 C 0,0 km/h (0 Bft) 97 %
15.03.2022 14:50 8,1 C 8,1 C 8,1 C 85 % 1020,6 hPa 0,0 l/m 0,0 km/h (0 Bft) S-SO 150 0 min 0,000 mm 100 W/m 5,7 C 8,1 C 0,0 km/h (0 Bft) 98 %
15.03.2022 15:00 8,1 C 8,1 C 8,1 C 84 % 1020,4 hPa 0,0 l/m 0,0 km/h (0 Bft) S-SO 150 0 min 0,050 mm 111 W/m 5,6 C 8,1 C 0,0 km/h (0 Bft) 97 %
15.03.2022 15:10 8,0 C 8,0 C 8,1 C 84 % 1020,1 hPa 0,0 l/m 0,0 km/h (0 Bft) S-SO 148 0 min 0,000 mm 77 W/m 5,5 C 8,0 C 0,0 km/h (0 Bft) 97 %
15.03.2022 15:20 8,1 C 8,0 C 8,1 C 84 % 1020,1 hPa 0,0 l/m 0,0 km/h (0 Bft) S-SO 148 0 min 0,000 mm 25 W/m 5,6 C 8,1 C 0,0 km/h (0 Bft) 98 %
15.03.2022 15:30 8,1 C 8,1 C 8,1 C 85 % 1020,1 hPa 0,0 l/m 0,0 km/h (0 Bft) S-SO 148 0 min 0,000 mm 16 W/m 5,7 C 8,1 C 0,0 km/h (0 Bft) 98 %
15.03.2022 15:40 8,1 C 8,1 C 8,1 C 86 % 1020,3 hPa 0,1 l/m 0,6 km/h (0 Bft) N 360 0 min 0,000 mm 9 W/m 5,9 C 8,1 C 4,8 km/h (1 Bft) 98 %
15.03.2022 15:50 7,9 C 7,9 C 8,1 C 87 % 1020,5 hPa 0,2 l/m 0,0 km/h (0 Bft) N 360 0 min 0,000 mm 7 W/m 5,9 C 7,9 C 0,0 km/h (0 Bft) 97 %
15.03.2022 16:00 7,7 C 7,7 C 7,9 C 88 % 1020,6 hPa 0,4 l/m 0,7 km/h (0 Bft) N 9 0 min 0,026 mm 7 W/m 5,8 C 7,7 C 4,8 km/h (1 Bft) 98 %
15.03.2022 16:10 7,4 C 7,4 C 7,7 C 89 % 1020,6 hPa 0,6 l/m 0,0 km/h (0 Bft) N 9 0 min 0,000 mm 7 W/m 5,7 C 7,4 C 0,0 km/h (0 Bft) 96 %
15.03.2022 16:20 7,3 C 7,3 C 7,4 C 90 % 1020,7 hPa 0,4 l/m 0,9 km/h (0 Bft) N-NW 346 0 min 0,000 mm 9 W/m 5,8 C 7,3 C 4,8 km/h (1 Bft) 97 %
15.03.2022 16:30 7,1 C 7,1 C 7,3 C 90 % 1020,3 hPa 0,6 l/m 0,0 km/h (0 Bft) N-NW 347 0 min 0,000 mm 25 W/m 5,6 C 7,1 C 0,0 km/h (0 Bft) 98 %
15.03.2022 16:40 6,8 C 6,8 C 7,1 C 91 % 1020,5 hPa 0,3 l/m 0,0 km/h (0 Bft) N-NW 347 0 min 0,000 mm 25 W/m 5,4 C 6,8 C 0,0 km/h (0 Bft) 97 %
15.03.2022 16:50 6,8 C 6,8 C 6,8 C 91 % 1020,5 hPa 0,1 l/m 0,0 km/h (0 Bft) N-NW 347 0 min 0,000 mm 18 W/m 5,4 C 6,8 C 0,0 km/h (0 Bft) 98 %
15.03.2022 17:00 6,7 C 6,7 C 6,8 C 91 % 1020,6 hPa 0,2 l/m 0,0 km/h (0 Bft) N-NW 347 0 min 0,000 mm 9 W/m 5,3 C 6,7 C 0,0 km/h (0 Bft) 97 %
15.03.2022 17:10 6,7 C 6,6 C 6,7 C 91 % 1020,6 hPa 0,3 l/m 0,0 km/h (0 Bft) N-NW 347 0 min 0,000 mm 9 W/m 5,3 C 6,7 C 0,0 km/h (0 Bft) 98 %
15.03.2022 17:20 6,6 C 6,6 C 6,7 C 91 % 1020,8 hPa 0,4 l/m 0,1 km/h (0 Bft) N 5 0 min 0,000 mm 11 W/m 5,2 C 6,6 C 6,4 km/h (2 Bft) 97 %
15.03.2022 17:30 6,4 C 6,4 C 6,6 C 91 % 1020,7 hPa 0,4 l/m 0,0 km/h (0 Bft) N 5 0 min 0,000 mm 7 W/m 5,0 C 6,4 C 0,0 km/h (0 Bft) 97 %
15.03.2022 17:40 6,4 C 6,4 C 6,4 C 91 % 1020,8 hPa 0,4 l/m 0,0 km/h (0 Bft) N 5 0 min 0,000 mm 0 W/m 5,0 C 6,4 C 0,0 km/h (0 Bft) 97 %
15.03.2022 17:50 6,4 C 6,4 C 6,4 C 91 % 1020,8 hPa 0,4 l/m 0,0 km/h (0 Bft) N 5 0 min 0,000 mm 7 W/m 5,0 C 6,4 C 0,0 km/h (0 Bft) 97 %
15.03.2022 18:00 6,3 C 6,3 C 6,4 C 91 % 1021,0 hPa 0,2 l/m 0,0 km/h (0 Bft) N 5 0 min 0,000 mm 0 W/m 4,9 C 6,3 C 0,0 km/h (0 Bft) 98 %
15.03.2022 18:10 6,3 C 6,3 C 6,3 C 91 % 1021,0 hPa 0,4 l/m 0,0 km/h (0 Bft) N 5 0 min 0,000 mm 0 W/m 4,9 C 6,3 C 0,0 km/h (0 Bft) 97 %
15.03.2022 18:20 6,2 C 6,2 C 6,3 C 91 % 1020,9 hPa 0,2 l/m 0,0 km/h (0 Bft) N 5 0 min 0,000 mm 0 W/m 4,8 C 6,2 C 0,0 km/h (0 Bft) 97 %
15.03.2022 18:30 6,2 C 6,2 C 6,2 C 91 % 1021,0 hPa 0,2 l/m 0,0 km/h (0 Bft) N 5 0 min 0,000 mm 0 W/m 4,8 C 6,2 C 0,0 km/h (0 Bft) 98 %
15.03.2022 18:40 6,2 C 6,2 C 6,2 C 91 % 1021,0 hPa 0,1 l/m 0,0 km/h (0 Bft) N 5 0 min 0,000 mm 0 W/m 4,8 C 6,2 C 0,0 km/h (0 Bft) 97 %
15.03.2022 18:50 6,2 C 6,2 C 6,2 C 91 % 1021,1 hPa 0,1 l/m 0,0 km/h (0 Bft) N 5 0 min 0,000 mm 0 W/m 4,8 C 6,2 C 0,0 km/h (0 Bft) 97 %
15.03.2022 19:00 6,1 C 6,1 C 6,2 C 91 % 1021,2 hPa 0,2 l/m 0,0 km/h (0 Bft) N 5 0 min 0,000 mm 0 W/m 4,7 C 6,1 C 0,0 km/h (0 Bft) 98 %
15.03.2022 19:10 6,1 C 6,1 C 6,1 C 91 % 1021,4 hPa 0,0 l/m 0,0 km/h (0 Bft) N 5 0 min 0,000 mm 0 W/m 4,7 C 6,1 C 0,0 km/h (0 Bft) 98 %
15.03.2022 19:20 6,1 C 6,1 C 6,1 C 91 % 1021,5 hPa 0,0 l/m 0,0 km/h (0 Bft) N 5 0 min 0,000 mm 0 W/m 4,7 C 6,1 C 0,0 km/h (0 Bft) 97 %
15.03.2022 19:30 6,1 C 6,1 C 6,1 C 91 % 1021,5 hPa 0,0 l/m 0,0 km/h (0 Bft) N 5 0 min 0,000 mm 0 W/m 4,7 C 6,1 C 0,0 km/h (0 Bft) 97 %
15.03.2022 19:40 6,1 C 6,1 C 6,1 C 91 % 1021,7 hPa 0,0 l/m 0,0 km/h (0 Bft) N 5 0 min 0,000 mm 0 W/m 4,7 C 6,1 C 0,0 km/h (0 Bft) 98 %
15.03.2022 19:50 6,1 C 6,1 C 6,1 C 91 % 1021,8 hPa 0,0 l/m 0,0 km/h (0 Bft) N 5 0 min 0,000 mm 0 W/m 4,7 C 6,1 C 0,0 km/h (0 Bft) 97 %
15.03.2022 20:00 6,1 C 6,1 C 6,2 C 91 % 1021,8 hPa 0,0 l/m 0,0 km/h (0 Bft) N 5 0 min 0,000 mm 0 W/m 4,7 C 6,1 C 0,0 km/h (0 Bft) 98 %
15.03.2022 20:10 6,2 C 6,1 C 6,2 C 91 % 1022,0 hPa 0,0 l/m 0,0 km/h (0 Bft) N 360 0 min 0,000 mm 0 W/m 4,8 C 6,2 C 0,0 km/h (0 Bft) 97 %
15.03.2022 20:20 6,3 C 6,2 C 6,3 C 91 % 1022,1 hPa 0,0 l/m 0,0 km/h (0 Bft) N 360 0 min 0,000 mm 0 W/m 4,9 C 6,3 C 0,0 km/h (0 Bft) 98 %
15.03.2022 20:30 6,3 C 6,3 C 6,3 C 91 % 1022,3 hPa 0,0 l/m 0,0 km/h (0 Bft) N-NW 344 0 min 0,000 mm 0 W/m 4,9 C 6,3 C 0,0 km/h (0 Bft) 97 %
15.03.2022 20:40 6,3 C 6,3 C 6,3 C 91 % 1022,6 hPa 0,0 l/m 0,0 km/h (0 Bft) N-NW 344 0 min 0,000 mm 0 W/m 4,9 C 6,3 C 0,0 km/h (0 Bft) 98 %
15.03.2022 20:50 6,3 C 6,3 C 6,3 C 91 % 1022,7 hPa 0,0 l/m 0,0 km/h (0 Bft) N-NW 344 0 min 0,000 mm 0 W/m 4,9 C 6,3 C 0,0 km/h (0 Bft) 97 %
15.03.2022 21:00 6,3 C 6,3 C 6,3 C 91 % 1022,6 hPa 0,0 l/m 0,0 km/h (0 Bft) N-NW 342 0 min 0,000 mm 0 W/m 4,9 C 6,3 C 0,0 km/h (0 Bft) 97 %
15.03.2022 21:10 6,3 C 6,3 C 6,3 C 91 % 1022,7 hPa 0,0 l/m 0,0 km/h (0 Bft) N 0 0 min 0,000 mm 0 W/m 4,9 C 6,3 C 0,0 km/h (0 Bft) 100 %
15.03.2022 21:20 6,3 C 6,3 C 6,3 C 91 % 1022,7 hPa 0,0 l/m 0,0 km/h (0 Bft) N 0 0 min 0,000 mm 0 W/m 4,9 C 6,3 C 0,0 km/h (0 Bft) 99 %
15.03.2022 21:30 6,3 C 6,3 C 6,3 C 91 % 1022,7 hPa 0,0 l/m 0,0 km/h (0 Bft) N 0 0 min 0,000 mm 0 W/m 4,9 C 6,3 C 0,0 km/h (0 Bft) 100 %
15.03.2022 21:40 6,3 C 6,3 C 6,3 C 91 % 1022,7 hPa 0,0 l/m 0,0 km/h (0 Bft) N 0 0 min 0,000 mm 0 W/m 4,9 C 6,3 C 0,0 km/h (0 Bft) 100 %
15.03.2022 21:50 6,3 C 6,3 C 6,3 C 91 % 1023,0 hPa 0,0 l/m 0,0 km/h (0 Bft) N 0 0 min 0,000 mm 0 W/m 4,9 C 6,3 C 0,0 km/h (0 Bft) 100 %
15.03.2022 22:00 6,3 C 6,3 C 6,3 C 91 % 1023,1 hPa 0,0 l/m 0,0 km/h (0 Bft) N 0 0 min 0,000 mm 0 W/m 4,9 C 6,3 C 0,0 km/h (0 Bft) 100 %
15.03.2022 22:10 6,3 C 6,3 C 6,3 C 91 % 1023,2 hPa 0,0 l/m 0,0 km/h (0 Bft) N 0 0 min 0,000 mm 0 W/m 4,9 C 6,3 C 0,0 km/h (0 Bft) 100 %
15.03.2022 22:20 6,3 C 6,3 C 6,3 C 91 % 1023,2 hPa 0,0 l/m 0,0 km/h (0 Bft) N 0 0 min 0,000 mm 0 W/m 4,9 C 6,3 C 0,0 km/h (0 Bft) 100 %
15.03.2022 22:30 6,3 C 6,3 C 6,3 C 91 % 1023,2 hPa 0,0 l/m 0,0 km/h (0 Bft) N 0 0 min 0,000 mm 0 W/m 4,9 C 6,3 C 0,0 km/h (0 Bft) 99 %
15.03.2022 22:40 6,2 C 6,2 C 6,3 C 91 % 1023,4 hPa 0,0 l/m 0,0 km/h (0 Bft) N 0 0 min 0,000 mm 0 W/m 4,8 C 6,2 C 0,0 km/h (0 Bft) 100 %
15.03.2022 22:50 6,1 C 6,1 C 6,2 C 91 % 1023,5 hPa 0,0 l/m 0,0 km/h (0 Bft) N 0 0 min 0,000 mm 0 W/m 4,7 C 6,1 C 0,0 km/h (0 Bft) 100 %
15.03.2022 23:00 6,0 C 6,0 C 6,1 C 91 % 1023,5 hPa 0,0 l/m 0,0 km/h (0 Bft) N 0 0 min 0,000 mm 0 W/m 4,6 C 6,0 C 0,0 km/h (0 Bft) 99 %
15.03.2022 23:10 5,9 C 5,9 C 6,0 C 91 % 1023,7 hPa 0,0 l/m 0,0 km/h (0 Bft) N 0 0 min 0,000 mm 0 W/m 4,5 C 5,9 C 0,0 km/h (0 Bft) 100 %
15.03.2022 23:20 5,8 C 5,8 C 5,9 C 91 % 1023,7 hPa 0,0 l/m 0,0 km/h (0 Bft) N 0 0 min 0,000 mm 0 W/m 4,4 C 5,8 C 0,0 km/h (0 Bft) 89 %
15.03.2022 23:30 5,7 C 5,7 C 5,8 C 91 % 1023,7 hPa 0,0 l/m 0,0 km/h (0 Bft) N 0 0 min 0,000 mm 0 W/m 4,3 C 5,7 C 0,0 km/h (0 Bft) 100 %
15.03.2022 23:40 5,6 C 5,6 C 5,7 C 91 % 1023,8 hPa 0,0 l/m 0,0 km/h (0 Bft) N 0 0 min 0,000 mm 0 W/m 4,2 C 5,6 C 0,0 km/h (0 Bft) 100 %
15.03.2022 23:50 5,6 C 5,6 C 5,6 C 91 % 1024,0 hPa 0,0 l/m 0,0 km/h (0 Bft) N 0 0 min 0,000 mm 0 W/m 4,2 C 5,6 C 0,0 km/h (0 Bft) 100 %
_ Min-Zeit 01:00 01:00 01:10 11:50 15:10 - 00:00 - - - - - 01:00 01:00 00:00 11:00
Minimum _ 1,9 C 1,9 C 1,9 C 75 % 1020,1 hPa - 0,0 km/h (0 Bft) - - - - - 0,4 C 1,9 C 0,0 km/h (0 Bft) 83 %
_ Max-Zeit 14:40 14:50 14:40 01:20 00:00 16:10 16:20 - - 10:00 11:00 10:40 15:40 14:40 17:20 00:10
Maximum _ 8,1 C 8,1 C 8,1 C 91 % 1029,0 hPa 0,6 l/m 0,9 km/h
N-NW (0 Bft)
- - 10 min 0,076 mm 244 W/m 5,9 C 8,1 C 6,4 km/h
N (2 Bft)
100 %
Durchschnitt _ 5,2 C 5,2 C 5,3 C 88 % 1024,4 hPa #6,4 l/m 0,0 km/h (0 Bft) N - #2:10 h #0,432 mm 90 W/m 3,4 C 5,2 C 0,2 km/h (0 Bft) 98 %
PRIVATE WETTERSTATION BILLIGHEIM-ALLFELD - www.neckar-odenwald-wetter.de - Holger Sonntag